createdAt,value
2023-01-19T00:09:33.235Z,20.40
2023-01-19T00:19:34.562Z,13.80
2023-01-19T00:29:36.051Z,13.83
2023-01-19T00:39:37.558Z,17.92
2023-01-19T00:49:39.208Z,17.80
2023-01-19T00:59:40.685Z,15.87
2023-01-19T01:09:42.065Z,25.90
2023-01-19T01:19:43.503Z,13.00
2023-01-19T01:29:47.751Z,14.70
2023-01-19T01:39:49.214Z,23.83
2023-01-19T01:49:56.131Z,18.63
2023-01-19T01:59:58.452Z,17.63
2023-01-19T02:10:18.235Z,18.17
2023-01-19T02:20:23.929Z,21.48
2023-01-19T02:30:25.762Z,24.40
2023-01-19T02:40:28.422Z,19.87
2023-01-19T02:50:36.112Z,13.57
2023-01-19T03:01:05.211Z,21.48
2023-01-19T03:11:10.326Z,19.50
2023-01-19T03:21:14.088Z,18.70
2023-01-19T03:31:20.800Z,18.95
2023-01-19T03:41:24.491Z,17.47
2023-01-19T03:51:26.836Z,18.47
2023-01-19T04:01:28.408Z,18.58
2023-01-19T04:11:29.983Z,15.20
2023-01-19T04:21:31.393Z,18.07
2023-01-19T04:31:33.270Z,15.15
2023-01-19T04:41:34.713Z,22.92
2023-01-19T04:51:36.892Z,20.37
2023-01-19T05:01:38.518Z,19.17
2023-01-19T05:11:39.959Z,28.95
2023-01-19T05:21:41.375Z,23.23
2023-01-19T05:31:43.102Z,18.83
2023-01-19T05:41:45.508Z,19.45
2023-01-19T05:51:47.259Z,18.63
2023-01-19T06:01:48.715Z,21.63
2023-01-19T06:11:50.400Z,16.85
2023-01-19T06:21:52.320Z,17.65
2023-01-19T06:31:54.069Z,27.27
2023-01-19T06:41:55.567Z,27.27
2023-01-19T06:51:56.972Z,28.05
2023-01-19T07:01:58.945Z,15.30
2023-01-19T07:12:00.611Z,26.80
2023-01-19T07:22:03.128Z,25.38
2023-01-19T07:32:04.741Z,20.53
2023-01-19T07:42:07.153Z,13.27
2023-01-19T07:52:09.510Z,16.02
2023-01-19T08:02:12.030Z,21.45
2023-01-19T08:12:13.431Z,18.23
2023-01-19T08:22:14.952Z,19.10
2023-01-19T08:32:17.120Z,14.90
2023-01-19T08:42:18.611Z,33.17
2023-01-19T08:52:20.053Z,29.10
2023-01-19T09:02:21.691Z,33.28
2023-01-19T09:12:23.316Z,24.80
2023-01-19T09:22:25.411Z,30.97
2023-01-19T09:32:26.938Z,34.03
2023-01-19T09:42:35.972Z,21.83
2023-01-19T09:52:43.641Z,32.50
2023-01-19T10:02:52.956Z,37.67
2023-01-19T10:13:13.449Z,28.50
2023-01-19T10:23:34.772Z,19.00
2023-01-19T10:33:38.055Z,27.33
2023-01-19T10:43:47.185Z,22.67
2023-01-19T10:53:54.696Z,32.83
2023-01-19T11:04:05.330Z,30.67
2023-01-19T11:14:12.625Z,39.85
2023-01-19T11:24:16.365Z,34.50
2023-01-19T11:34:30.104Z,44.13
2023-01-19T11:44:36.012Z,41.57
2023-01-19T11:54:46.771Z,41.53
2023-01-19T12:04:50.483Z,47.23
2023-01-19T12:15:14.955Z,35.17
2023-01-19T12:25:24.886Z,35.25
2023-01-19T12:35:57.350Z,42.67
2023-01-19T12:45:58.935Z,30.23
2023-01-19T12:56:08.628Z,40.75
2023-01-19T13:06:10.116Z,35.88
2023-01-19T13:16:29.555Z,29.20
2023-01-19T13:26:34.546Z,31.87
2023-01-19T13:36:38.276Z,30.52
2023-01-19T13:46:40.961Z,30.57
2023-01-19T13:56:54.716Z,27.13
2023-01-19T14:07:03.594Z,28.90
2023-01-19T14:17:16.416Z,25.37
2023-01-19T14:27:19.992Z,23.47
2023-01-19T14:37:26.306Z,20.42
2023-01-19T14:47:31.939Z,19.63
2023-01-19T14:57:36.074Z,19.37
2023-01-19T15:07:41.447Z,24.03
2023-01-19T15:17:43.261Z,23.85
2023-01-19T15:27:46.035Z,17.27
2023-01-19T15:37:48.868Z,17.43
2023-01-19T15:47:50.343Z,20.95
2023-01-19T15:57:51.748Z,22.37
2023-01-19T16:07:53.249Z,22.97
2023-01-19T16:17:54.731Z,24.35
2023-01-19T16:27:57.063Z,20.65
2023-01-19T16:37:58.513Z,16.03
2023-01-19T16:48:00.319Z,20.37
2023-01-19T16:58:01.922Z,16.38
2023-01-19T17:08:03.488Z,28.00
2023-01-19T17:18:05.374Z,23.43
2023-01-19T17:28:06.835Z,22.58
2023-01-19T17:38:08.412Z,27.97
2023-01-19T17:48:09.955Z,27.10
2023-01-19T17:58:11.462Z,30.42
2023-01-19T18:08:12.797Z,34.40
2023-01-19T18:18:14.556Z,29.17
2023-01-19T18:28:15.958Z,29.43
2023-01-19T18:38:17.629Z,32.33
2023-01-19T18:48:19.198Z,30.63
2023-01-19T18:58:20.876Z,31.33
2023-01-19T19:08:22.583Z,36.53
2023-01-19T19:18:24.171Z,23.00
2023-01-19T19:28:25.638Z,31.07
2023-01-19T19:38:28.043Z,28.48
2023-01-19T19:48:30.191Z,29.42
2023-01-19T19:58:32.339Z,30.63
2023-01-19T20:08:34.071Z,35.87
2023-01-19T20:18:36.809Z,27.73
2023-01-19T20:28:39.094Z,29.33
2023-01-19T20:38:41.794Z,27.90
2023-01-19T20:48:43.215Z,28.42
2023-01-19T20:58:44.738Z,29.30
2023-01-19T21:08:46.533Z,29.17
2023-01-19T21:18:48.012Z,33.83
2023-01-19T21:28:50.505Z,40.22
2023-01-19T21:38:52.327Z,36.67
2023-01-19T21:48:53.799Z,34.67
2023-01-19T21:58:56.684Z,37.83
2023-01-19T22:08:58.390Z,32.50
2023-01-19T22:19:01.981Z,36.43
2023-01-19T22:29:06.312Z,32.97
2023-01-19T22:39:10.138Z,39.03
2023-01-19T22:49:14.107Z,34.37
2023-01-19T22:59:15.709Z,33.10
2023-01-19T23:09:18.058Z,34.17
2023-01-19T23:19:19.625Z,42.00
2023-01-19T23:29:21.215Z,41.07
2023-01-19T23:39:22.961Z,46.30
2023-01-19T23:49:24.500Z,38.57
2023-01-19T23:59:26.071Z,39.37
